Time;durP1;ratioP1;P1;durP2;ratioP2;P2;SDS_P1;SDS_P2;PMS_P1;PMS_P2;Temp;Humidity;BMP_temperature;BMP_pressure;BME280_temperature;BME280_humidity;BME280_pressure;Samples;Min_cycle;Max_cycle;Signal;HPM_P1;HPM_P2
2023/02/11 00:00:10;;;;;;;64.00;30.98;;;1.70;99.90;;;;;;5086331;28;20070;-82
2023/02/11 00:02:35;;;;;;;63.95;30.88;;;1.60;99.90;;;;;;5087722;28;20032;-83
2023/02/11 00:05:01;;;;;;;66.40;31.63;;;1.60;99.90;;;;;;5087655;28;20019;-81
2023/02/11 00:07:33;;;;;;;65.15;31.80;;;1.60;99.90;;;;;;5086667;28;20023;-83
2023/02/11 00:10:01;;;;;;;65.95;31.00;;;1.60;99.90;;;;;;5095901;28;20024;-82
2023/02/11 00:12:27;;;;;;;62.97;32.53;;;1.60;99.90;;;;;;5083348;28;20389;-83
2023/02/11 00:14:53;;;;;;;61.92;30.77;;;1.60;99.90;;;;;;5084122;28;20028;-88
2023/02/11 00:17:19;;;;;;;64.28;31.02;;;1.80;99.90;;;;;;5084510;28;20092;-83
2023/02/11 00:19:49;;;;;;;63.33;32.92;;;1.70;99.90;;;;;;5085770;28;20598;-84
2023/02/11 00:22:14;;;;;;;67.20;31.65;;;1.60;99.90;;;;;;5084089;28;20040;-82
2023/02/11 00:24:40;;;;;;;69.68;33.40;;;1.60;99.90;;;;;;5085952;28;20028;-82
2023/02/11 00:27:09;;;;;;;68.00;31.90;;;1.60;99.90;;;;;;5089147;28;20043;-81
2023/02/11 00:29:36;;;;;;;63.88;31.00;;;1.60;99.90;;;;;;5083798;28;20094;-81
2023/02/11 00:32:04;;;;;;;59.90;32.03;;;2.80;99.90;;;;;;5083958;28;20028;-82
2023/02/11 00:34:30;;;;;;;62.15;30.45;;;1.60;99.90;;;;;;5086080;28;20082;-82
2023/02/11 00:36:56;;;;;;;65.60;31.35;;;1.50;99.90;;;;;;5077673;28;20024;-84
2023/02/11 00:39:22;;;;;;;63.08;32.10;;;1.60;99.90;;;;;;5087442;28;20021;-80
2023/02/11 00:41:47;;;;;;;60.33;32.13;;;3.40;99.90;;;;;;5084476;28;20059;-82
2023/02/11 00:44:13;;;;;;;60.10;30.58;;;4.00;99.90;;;;;;5087053;28;20056;-81
2023/02/11 00:46:38;;;;;;;64.70;31.65;;;0.40;99.90;;;;;;5086317;28;20562;-82
2023/02/11 00:49:04;;;;;;;62.17;32.00;;;1.70;99.90;;;;;;5090771;28;20032;-83
2023/02/11 00:51:30;;;;;;;66.05;33.10;;;1.20;99.90;;;;;;5106706;28;20099;-85
2023/02/11 00:53:56;;;;;;;62.20;32.20;;;3.00;99.90;;;;;;5096619;28;20258;-83
2023/02/11 00:56:21;;;;;;;68.55;31.75;;;3.00;99.90;;;;;;5093024;28;20028;-81
2023/02/11 00:58:47;;;;;;;58.85;30.05;;;1.70;99.90;;;;;;5087145;28;20028;-84
2023/02/11 01:01:13;;;;;;;63.80;31.65;;;1.70;99.90;;;;;;5083314;28;20032;-81
2023/02/11 01:03:39;;;;;;;63.15;30.40;;;1.70;99.90;;;;;;5084781;28;20032;-80
2023/02/11 01:06:07;;;;;;;64.95;31.77;;;1.70;99.90;;;;;;5090450;28;20059;-81
2023/02/11 01:08:33;;;;;;;63.30;31.83;;;1.70;99.90;;;;;;5091380;28;20052;-81
2023/02/11 01:11:01;;;;;;;62.90;30.52;;;1.20;99.90;;;;;;5095251;28;20106;-82
2023/02/11 01:13:29;;;;;;;61.63;29.98;;;4.30;99.90;;;;;;5094690;28;20025;-82
2023/02/11 01:15:55;;;;;;;64.55;31.50;;;3.10;99.90;;;;;;5100378;28;20032;-84
2023/02/11 01:18:21;;;;;;;58.83;29.02;;;2.70;99.90;;;;;;5097131;28;20077;-82
2023/02/11 01:20:47;;;;;;;61.53;29.30;;;3.80;99.90;;;;;;5091475;28;20493;-81
2023/02/11 01:23:12;;;;;;;53.65;29.15;;;4.30;99.90;;;;;;5095418;28;20092;-81
2023/02/11 01:25:38;;;;;;;57.10;28.63;;;2.80;99.90;;;;;;5090811;28;20075;-81
2023/02/11 01:28:04;;;;;;;57.70;29.75;;;1.80;99.90;;;;;;5097236;28;20625;-80
2023/02/11 01:30:30;;;;;;;58.90;28.85;;;1.60;99.90;;;;;;5090847;28;20035;-84
2023/02/11 01:32:55;;;;;;;57.50;29.45;;;3.70;99.90;;;;;;5094356;28;20032;-81
2023/02/11 01:35:21;;;;;;;62.15;30.95;;;3.10;99.90;;;;;;5087859;28;20024;-83
2023/02/11 01:37:46;;;;;;;65.80;30.25;;;3.00;99.90;;;;;;5089365;28;20024;-82
2023/02/11 01:40:16;;;;;;;59.35;29.80;;;3.60;99.90;;;;;;5087804;28;20024;-81
2023/02/11 01:42:42;;;;;;;64.15;30.23;;;1.70;99.90;;;;;;5088659;28;20024;-85
2023/02/11 01:45:45;;;;;;;58.95;29.90;;;3.60;99.90;;;;;;5091669;28;20039;-86
2023/02/11 01:48:15;;;;;;;59.20;28.90;;;1.70;99.90;;;;;;5093508;28;20657;-82
2023/02/11 01:50:44;;;;;;;62.88;30.00;;;3.40;99.90;;;;;;5105458;28;20035;-81
2023/02/11 01:58:42;;;;;;;56.30;29.23;;;3.00;99.90;;;;;;5091295;28;20059;-82
2023/02/11 02:01:11;;;;;;;61.88;29.40;;;3.90;99.90;;;;;;5097822;28;20028;-81
2023/02/11 02:03:39;;;;;;;58.70;29.05;;;3.50;99.90;;;;;;5088609;28;20021;-82
2023/02/11 02:06:07;;;;;;;68.00;33.47;;;3.40;99.90;;;;;;5095766;28;20035;-81
2023/02/11 02:08:50;;;;;;;59.08;29.65;;;1.60;99.90;;;;;;5098717;28;20036;-82
2023/02/11 02:11:19;;;;;;;59.20;29.02;;;3.10;99.90;;;;;;5100119;28;20111;-80
2023/02/11 02:13:45;;;;;;;57.15;29.88;;;3.70;99.90;;;;;;5098785;28;20080;-81
2023/02/11 02:16:13;;;;;;;59.60;29.70;;;4.40;99.90;;;;;;5097063;28;20153;-84
2023/02/11 02:18:57;;;;;;;60.33;28.70;;;4.30;99.90;;;;;;5097428;28;20024;-81
2023/02/11 02:22:00;;;;;;;64.13;30.45;;;1.80;99.90;;;;;;5099210;28;20024;-83
2023/02/11 02:24:47;;;;;;;65.57;31.52;;;1.70;99.90;;;;;;5094783;28;20088;-81
2023/02/11 02:27:28;;;;;;;58.78;29.63;;;1.70;99.90;;;;;;5092291;28;20033;-81
2023/02/11 02:30:03;;;;;;;64.35;30.77;;;1.20;99.90;;;;;;5106004;28;20450;-82
2023/02/11 02:32:38;;;;;;;58.88;29.80;;;1.60;99.90;;;;;;5095264;28;20096;-81
2023/02/11 02:35:22;;;;;;;60.28;29.75;;;1.60;99.90;;;;;;5090207;28;20529;-82
2023/02/11 02:37:48;;;;;;;65.03;32.00;;;;;;;;;;5099494;28;20079;-84
2023/02/11 02:40:30;;;;;;;63.42;31.83;;;1.70;99.90;;;;;;5102161;28;20035;-82
2023/02/11 02:42:57;;;;;;;65.25;31.75;;;3.50;99.90;;;;;;5112639;28;20035;-82
2023/02/11 02:45:23;;;;;;;64.28;30.55;;;3.70;99.90;;;;;;5088813;28;20029;-81
2023/02/11 02:47:52;;;;;;;66.15;31.70;;;4.00;99.90;;;;;;5091072;28;20028;-82
2023/02/11 02:50:28;;;;;;;58.75;30.50;;;2.50;99.90;;;;;;5095391;28;20269;-82
2023/02/11 02:53:20;;;;;;;57.38;29.27;;;3.40;99.90;;;;;;5089577;28;20047;-86
2023/02/11 02:56:04;;;;;;;;;;;1.70;99.90;;;;;;5088447;28;20518;-81
2023/02/11 02:58:47;;;;;;;61.83;29.92;;;1.70;99.90;;;;;;5093721;28;20362;-83
2023/02/11 03:01:35;;;;;;;58.83;28.60;;;1.10;99.90;;;;;;5096703;28;20091;-81
2023/02/11 03:04:06;;;;;;;60.95;30.35;;;1.70;99.90;;;;;;5094283;28;20054;-81
2023/02/11 03:06:54;;;;;;;60.58;30.30;;;3.70;99.90;;;;;;5094384;28;20683;-81
2023/02/11 03:09:45;;;;;;;56.45;29.15;;;1.70;99.90;;;;;;5091208;28;20036;-83
2023/02/11 03:12:13;;;;;;;56.42;29.45;;;1.70;99.90;;;;;;5091996;28;20020;-81
2023/02/11 03:14:40;;;;;;;60.65;28.60;;;3.90;99.90;;;;;;5091253;28;20020;-82
2023/02/11 03:17:09;;;;;;;62.00;30.67;;;3.50;99.90;;;;;;5093236;28;20020;-81
2023/02/11 03:19:39;;;;;;;63.53;29.65;;;3.70;99.90;;;;;;5093383;28;20303;-83
2023/02/11 03:22:12;;;;;;;62.92;30.25;;;3.20;99.90;;;;;;5096128;28;20032;-80
2023/02/11 03:24:39;;;;;;;53.20;28.17;;;1.30;99.90;;;;;;5099566;28;20024;-86
2023/02/11 03:27:17;;;;;;;57.28;28.52;;;3.40;99.90;;;;;;5108287;28;20020;-84
2023/02/11 03:29:56;;;;;;;58.35;28.65;;;1.70;99.90;;;;;;5106685;28;20031;-82
2023/02/11 03:32:34;;;;;;;61.38;29.88;;;3.50;99.90;;;;;;5095926;28;20029;-81
2023/02/11 03:35:08;;;;;;;58.63;27.98;;;3.60;99.90;;;;;;5091617;28;20081;-82
2023/02/11 03:37:36;;;;;;;56.38;28.80;;;1.30;99.90;;;;;;5090794;28;20019;-79
2023/02/11 03:40:16;;;;;;;53.15;28.88;;;2.80;99.90;;;;;;5097408;28;20019;-81
2023/02/11 03:43:08;;;;;;;57.97;29.07;;;1.80;99.90;;;;;;5090598;28;20033;-80
2023/02/11 03:45:36;;;;;;;56.35;28.67;;;3.90;99.90;;;;;;5085896;28;20032;-81
2023/02/11 03:48:14;;;;;;;54.70;28.73;;;3.70;99.90;;;;;;5094339;28;20048;-82
2023/02/11 03:50:41;;;;;;;53.10;27.35;;;1.80;99.90;;;;;;5086530;28;20422;-81
2023/02/11 03:53:07;;;;;;;52.10;26.85;;;;;;;;;;5092981;28;20520;-84
2023/02/11 03:55:37;;;;;;;52.00;27.73;;;1.80;99.90;;;;;;5095517;28;20070;-84
2023/02/11 03:58:03;;;;;;;55.47;27.63;;;;;;;;;;5093566;28;20028;-81
2023/02/11 04:00:32;;;;;;;55.90;28.20;;;1.90;99.90;;;;;;5092171;28;20024;-81
2023/02/11 04:02:58;;;;;;;51.53;27.08;;;;;;;;;;5094812;28;20032;-81
2023/02/11 04:05:23;;;;;;;52.92;26.73;;;1.90;99.90;;;;;;5085306;28;20024;-79
2023/02/11 04:07:49;;;;;;;54.65;26.75;;;;;;;;;;5089080;28;21015;-82
2023/02/11 04:10:15;;;;;;;53.80;27.20;;;;;;;;;;5087545;28;20028;-81
2023/02/11 04:12:41;;;;;;;51.05;26.15;;;;;;;;;;5084397;28;20035;-84
2023/02/11 04:15:07;;;;;;;54.60;26.00;;;1.90;99.90;;;;;;5086563;28;20078;-81
2023/02/11 04:17:33;;;;;;;53.38;27.02;;;2.00;99.90;;;;;;5089217;28;20385;-83
2023/02/11 04:19:59;;;;;;;52.40;27.73;;;3.80;99.90;;;;;;5090417;28;20032;-81
2023/02/11 04:22:24;;;;;;;55.05;28.17;;;1.90;99.90;;;;;;5088415;28;20036;-83
2023/02/11 04:24:50;;;;;;;57.63;28.30;;;3.00;99.90;;;;;;5089180;28;20032;-81
2023/02/11 04:27:16;;;;;;;56.58;27.85;;;3.90;99.90;;;;;;5090728;28;20032;-82
2023/02/11 04:29:41;;;;;;;52.28;26.38;;;3.50;99.90;;;;;;5094192;28;20062;-83
2023/02/11 04:32:08;;;;;;;51.95;26.92;;;3.80;99.90;;;;;;5088232;28;20149;-80
2023/02/11 04:34:34;;;;;;;52.70;27.35;;;4.00;99.90;;;;;;5088583;28;20032;-82
2023/02/11 04:37:00;;;;;;;53.50;27.17;;;;;;;;;;5095468;28;20413;-83
2023/02/11 04:39:26;;;;;;;51.08;25.60;;;1.80;99.90;;;;;;5087508;28;21461;-86
2023/02/11 04:41:51;;;;;;;50.97;27.00;;;3.60;99.90;;;;;;5092562;28;20591;-81
2023/02/11 04:44:17;;;;;;;52.05;26.48;;;;;;;;;;5085462;28;20105;-86
2023/02/11 04:46:44;;;;;;;54.92;27.52;;;1.70;99.90;;;;;;5086929;28;20112;-83
2023/02/11 04:49:14;;;;;;;49.17;25.98;;;3.80;99.90;;;;;;5096290;28;20043;-82
2023/02/11 04:51:40;;;;;;;52.45;26.20;;;3.90;99.90;;;;;;5093838;28;20021;-81
2023/02/11 04:54:05;;;;;;;51.72;25.13;;;2.70;99.90;;;;;;5094107;28;20058;-82
2023/02/11 04:56:31;;;;;;;49.20;25.75;;;3.40;99.90;;;;;;5093585;28;20039;-86
2023/02/11 04:58:57;;;;;;;46.80;24.92;;;2.00;99.90;;;;;;5094632;28;20032;-85
2023/02/11 05:01:22;;;;;;;50.78;26.13;;;4.20;99.90;;;;;;5092203;28;20091;-84
2023/02/11 05:03:48;;;;;;;51.08;26.20;;;1.60;99.90;;;;;;5098762;28;20031;-87
2023/02/11 05:06:14;;;;;;;51.38;25.35;;;1.70;99.90;;;;;;5095107;28;20035;-84
2023/02/11 05:08:39;;;;;;;50.58;26.35;;;1.80;99.90;;;;;;5088119;28;20108;-83
2023/02/11 05:11:06;;;;;;;49.55;25.45;;;1.80;99.90;;;;;;5084161;28;20024;-81
2023/02/11 05:13:32;;;;;;;52.45;27.70;;;1.80;99.90;;;;;;5087198;28;20031;-81
2023/02/11 05:15:57;;;;;;;48.15;25.35;;;1.70;99.90;;;;;;5083541;28;20099;-82
2023/02/11 05:18:23;;;;;;;45.28;24.20;;;3.10;99.90;;;;;;5084999;28;20455;-81
2023/02/11 05:20:49;;;;;;;48.80;25.23;;;4.30;99.90;;;;;;5088569;28;20073;-80
2023/02/11 05:23:14;;;;;;;53.03;27.40;;;1.60;99.90;;;;;;5086736;28;20402;-82
2023/02/11 05:25:40;;;;;;;51.72;26.42;;;3.80;99.90;;;;;;5086397;28;20036;-82
2023/02/11 05:28:06;;;;;;;51.42;24.77;;;3.70;99.90;;;;;;5081744;28;20527;-82
2023/02/11 05:30:32;;;;;;;48.80;26.30;;;2.20;99.90;;;;;;5087198;28;20039;-82
2023/02/11 05:32:59;;;;;;;53.25;25.85;;;3.70;99.90;;;;;;5079610;28;20083;-80
2023/02/11 05:35:25;;;;;;;44.40;23.90;;;3.60;99.90;;;;;;5085106;28;20060;-82
2023/02/11 05:37:50;;;;;;;50.88;25.48;;;1.60;99.90;;;;;;5084239;28;20396;-80
2023/02/11 05:40:16;;;;;;;51.25;25.35;;;3.50;99.90;;;;;;5079365;28;20039;-83
2023/02/11 05:42:42;;;;;;;47.10;24.98;;;2.00;99.90;;;;;;5082823;28;20055;-82
2023/02/11 05:45:08;;;;;;;46.00;25.42;;;3.70;99.90;;;;;;5087732;28;20066;-82
2023/02/11 05:47:33;;;;;;;52.33;26.23;;;1.80;99.90;;;;;;5090592;28;20043;-82
2023/02/11 05:49:59;;;;;;;49.08;25.80;;;2.40;99.90;;;;;;5087646;28;20035;-80
2023/02/11 05:52:24;;;;;;;51.08;25.40;;;2.60;99.90;;;;;;5089534;28;20089;-82
2023/02/11 05:54:50;;;;;;;50.83;25.02;;;1.80;99.90;;;;;;5087823;28;20027;-84
2023/02/11 05:57:16;;;;;;;46.78;24.27;;;1.80;99.90;;;;;;5086429;28;20516;-81
2023/02/11 05:59:42;;;;;;;53.58;26.02;;;1.90;99.90;;;;;;5093184;28;20040;-80
2023/02/11 06:02:08;;;;;;;49.72;26.20;;;1.90;99.90;;;;;;5105059;28;20028;-83
2023/02/11 06:04:35;;;;;;;48.25;24.27;;;1.90;99.90;;;;;;5099528;28;20063;-83
2023/02/11 06:07:00;;;;;;;44.38;23.65;;;1.90;99.90;;;;;;5088934;28;20032;-82
2023/02/11 06:09:26;;;;;;;45.45;23.65;;;1.90;99.90;;;;;;5086899;28;20039;-84
2023/02/11 06:11:52;;;;;;;49.55;24.65;;;1.90;99.90;;;;;;5082586;28;20036;-82
2023/02/11 06:14:18;;;;;;;51.40;24.58;;;2.30;99.90;;;;;;5081155;28;20035;-83
2023/02/11 06:16:44;;;;;;;47.03;24.60;;;2.00;99.90;;;;;;5085869;28;20059;-85
2023/02/11 06:19:11;;;;;;;44.25;23.27;;;2.10;99.90;;;;;;5085626;28;20071;-83
2023/02/11 06:21:37;;;;;;;46.42;23.48;;;;;;;;;;5089801;28;20028;-83
2023/02/11 06:24:03;;;;;;;49.05;24.48;;;2.10;99.90;;;;;;5086324;28;20024;-83
2023/02/11 06:26:29;;;;;;;45.65;23.77;;;2.10;99.90;;;;;;5086925;28;20035;-83
2023/02/11 06:28:55;;;;;;;44.63;23.75;;;3.60;99.90;;;;;;5085556;28;20035;-85
2023/02/11 06:31:21;;;;;;;43.03;21.98;;;;;;;;;;5089381;28;20029;-84
2023/02/11 06:33:49;;;;;;;45.63;23.70;;;;;;;;;;5076955;28;20622;-83
2023/02/11 06:36:17;;;;;;;37.50;21.08;;;;;;;;;;5094141;28;20147;-82
2023/02/11 06:38:43;;;;;;;43.30;22.35;;;;;;;;;;5091469;28;20081;-81
2023/02/11 06:41:10;;;;;;;40.25;21.27;;;;;;;;;;5089335;28;20115;-84
2023/02/11 06:43:36;;;;;;;45.05;22.48;;;;;;;;;;5086344;28;20024;-83
2023/02/11 06:46:02;;;;;;;41.35;21.45;;;;;;;;;;5094421;28;20028;-83
2023/02/11 06:48:28;;;;;;;40.45;21.48;;;;;;;;;;5088494;28;20035;-82
2023/02/11 06:50:54;;;;;;;41.15;22.27;;;;;;;;;;5087793;28;20040;-81
2023/02/11 06:53:20;;;;;;;44.70;23.23;;;;;;;;;;5090770;28;20012;-80
2023/02/11 06:55:46;;;;;;;43.10;21.02;;;;;;;;;;5091361;28;20039;-82
2023/02/11 06:58:14;;;;;;;66.50;22.98;;;;;;;;;;5090184;28;21940;-83
2023/02/11 07:00:40;;;;;;;54.95;23.20;;;;;;;;;;5081248;28;20088;-81
2023/02/11 07:03:07;;;;;;;44.58;23.73;;;;;;;;;;5073754;28;20489;-84
2023/02/11 07:05:33;;;;;;;43.00;21.65;;;2.10;99.90;;;;;;5086207;28;20111;-80
2023/02/11 07:07:58;;;;;;;42.20;21.17;;;2.10;99.90;;;;;;5086277;28;20139;-80
2023/02/11 07:10:24;;;;;;;49.80;23.75;;;;;;;;;;5083142;28;20173;-79
2023/02/11 07:12:50;;;;;;;44.20;21.73;;;;;;;;;;5083143;28;20121;-80
2023/02/11 07:15:16;;;;;;;42.28;23.23;;;;;;;;;;5090965;28;20028;-81
2023/02/11 07:17:42;;;;;;;44.60;22.55;;;;;;;;;;5090069;28;20664;-80
2023/02/11 07:20:11;;;;;;;40.47;22.92;;;;;;;;;;5091655;28;20020;-79
2023/02/11 07:22:37;;;;;;;39.90;21.63;;;;;;;;;;5086294;28;20032;-80
2023/02/11 07:25:03;;;;;;;40.55;22.10;;;;;;;;;;5088910;28;20055;-80
2023/02/11 07:27:29;;;;;;;40.45;20.80;;;;;;;;;;5091937;28;20038;-79
2023/02/11 07:29:55;;;;;;;38.42;21.02;;;;;;;;;;5086088;28;20028;-91
2023/02/11 07:32:21;;;;;;;38.42;20.85;;;2.30;99.90;;;;;;5090113;28;20025;-81
2023/02/11 07:34:47;;;;;;;40.13;22.08;;;;;;;;;;5091994;28;20036;-82
2023/02/11 07:37:13;;;;;;;43.38;21.58;;;;;;;;;;5085824;28;20081;-79
2023/02/11 07:39:39;;;;;;;38.50;20.50;;;;;;;;;;5079223;28;20492;-79
2023/02/11 07:42:05;;;;;;;42.08;20.58;;;;;;;;;;5080331;28;20493;-81
2023/02/11 07:44:32;;;;;;;41.53;21.15;;;;;;;;;;5093565;28;20035;-79
2023/02/11 07:46:58;;;;;;;43.60;21.83;;;;;;;;;;5082745;28;20123;-81
2023/02/11 07:49:24;;;;;;;41.83;21.67;;;;;;;;;;5087545;28;20035;-83
2023/02/11 07:51:50;;;;;;;37.10;19.30;;;;;;;;;;5090862;28;20025;-79
2023/02/11 07:54:16;;;;;;;40.92;20.92;;;;;;;;;;5085889;28;20465;-82
2023/02/11 07:56:42;;;;;;;39.85;20.67;;;;;;;;;;5090557;28;20446;-84
2023/02/11 07:59:09;;;;;;;40.30;20.85;;;2.50;99.90;;;;;;5090385;28;20028;-80
2023/02/11 08:01:35;;;;;;;34.72;19.58;;;;;;;;;;5087682;28;20474;-78
2023/02/11 08:04:02;;;;;;;37.58;20.17;;;2.50;99.90;;;;;;5089753;28;20037;-78
2023/02/11 08:06:31;;;;;;;37.45;21.35;;;2.50;99.90;;;;;;5084646;28;20073;-85
2023/02/11 08:08:57;;;;;;;38.08;20.25;;;5.90;99.90;;;;;;5088362;28;20036;-82
2023/02/11 08:11:27;;;;;;;39.25;20.85;;;2.60;99.90;;;;;;5090373;28;20131;-85
2023/02/11 08:13:54;;;;;;;37.38;19.50;;;2.60;99.90;;;;;;5089201;28;20115;-81
2023/02/11 08:16:23;;;;;;;38.08;19.92;;;2.20;99.90;;;;;;5083891;28;20025;-81
2023/02/11 08:18:51;;;;;;;36.75;19.70;;;2.70;99.90;;;;;;5087687;28;20424;-82
2023/02/11 08:21:17;;;;;;;39.40;20.20;;;;;;;;;;5082736;28;20149;-80
2023/02/11 08:23:44;;;;;;;38.15;20.02;;;2.80;99.90;;;;;;5086196;28;20028;-79
2023/02/11 08:26:12;;;;;;;37.65;20.10;;;2.90;99.90;;;;;;5087158;28;20401;-83
2023/02/11 08:28:40;;;;;;;37.75;20.55;;;2.80;99.90;;;;;;5087932;28;20030;-81
2023/02/11 08:31:08;;;;;;;33.90;18.98;;;2.80;99.90;;;;;;5089004;28;20032;-81
2023/02/11 08:33:34;;;;;;;37.55;20.92;;;;;;;;;;5090760;28;20023;-81
2023/02/11 08:36:02;;;;;;;37.08;19.90;;;;;;;;;;5097156;28;20105;-85
2023/02/11 08:38:28;;;;;;;36.90;18.77;;;;;;;;;;5104179;28;20080;-85
2023/02/11 08:40:54;;;;;;;36.30;20.23;;;;;;;;;;5091035;28;20055;-79
2023/02/11 08:43:20;;;;;;;39.33;20.60;;;;;;;;;;5070673;28;20028;-79
2023/02/11 08:45:46;;;;;;;35.08;19.52;;;;;;;;;;5082901;28;20031;-83
2023/02/11 08:48:12;;;;;;;39.58;20.50;;;;;;;;;;5083713;28;20027;-80
2023/02/11 08:50:38;;;;;;;37.60;20.13;;;3.00;99.90;;;;;;5080952;28;20449;-82
2023/02/11 08:53:04;;;;;;;35.30;19.60;;;;;;;;;;5089349;28;20123;-86
2023/02/11 08:55:30;;;;;;;39.50;21.77;;;;;;;;;;5089878;28;20021;-82
2023/02/11 08:57:56;;;;;;;38.45;21.48;;;3.20;99.90;;;;;;5083379;28;20077;-79
2023/02/11 09:00:22;;;;;;;41.60;21.25;;;3.40;99.90;;;;;;5082796;28;20043;-80
2023/02/11 09:02:47;;;;;;;35.15;19.83;;;3.30;99.90;;;;;;5079545;28;20032;-80
2023/02/11 09:05:13;;;;;;;39.28;21.67;;;3.30;99.90;;;;;;5082201;28;20040;-81
2023/02/11 09:07:38;;;;;;;37.50;20.83;;;5.10;99.90;;;;;;5085656;28;20402;-80
2023/02/11 09:10:05;;;;;;;38.40;20.08;;;5.80;99.90;;;;;;5070882;28;20032;-84
2023/02/11 09:12:31;;;;;;;34.88;19.65;;;;;;;;;;5083151;28;20027;-81
2023/02/11 09:14:57;;;;;;;36.92;19.75;;;;;;;;;;5078357;28;20035;-79
2023/02/11 09:17:23;;;;;;;37.40;19.30;;;;;;;;;;5090292;28;20032;-78
2023/02/11 09:19:49;;;;;;;39.95;20.83;;;3.40;99.90;;;;;;5090910;28;20027;-81
2023/02/11 09:22:15;;;;;;;35.92;19.50;;;4.20;99.90;;;;;;5080412;28;20109;-79
2023/02/11 09:24:40;;;;;;;36.03;19.92;;;2.40;99.90;;;;;;5082252;28;20080;-80
2023/02/11 09:27:06;;;;;;;34.63;18.85;;;;;;;;;;5072027;28;20184;-80
2023/02/11 09:29:32;;;;;;;36.30;20.20;;;3.70;99.90;;;;;;5085259;28;20043;-81
2023/02/11 09:31:57;;;;;;;36.03;19.63;;;3.80;99.90;;;;;;5085342;28;20509;-83
2023/02/11 09:34:23;;;;;;;36.53;20.73;;;3.80;99.90;;;;;;5081719;28;20028;-79
2023/02/11 09:36:49;;;;;;;34.53;19.40;;;4.40;99.90;;;;;;5085833;28;20024;-80
2023/02/11 09:39:17;;;;;;;35.60;19.35;;;3.90;99.90;;;;;;5083871;28;20107;-81
2023/02/11 09:42:07;;;;;;;36.70;19.63;;;3.90;99.90;;;;;;5084808;28;20056;-84
2023/02/11 09:44:35;;;;;;;35.10;18.97;;;4.00;99.90;;;;;;5087125;28;20025;-82
2023/02/11 09:47:04;;;;;;;37.30;19.08;;;4.20;99.90;;;;;;5089245;28;20040;-82
2023/02/11 09:49:48;;;;;;;36.35;18.17;;;4.40;99.90;;;;;;5087902;28;20020;-82
2023/02/11 09:52:28;;;;;;;34.10;18.15;;;4.20;99.90;;;;;;5084693;28;20114;-83
2023/02/11 09:54:57;;;;;;;36.75;20.05;;;4.30;99.90;;;;;;5087476;28;20024;-82
2023/02/11 09:57:30;;;;;;;38.08;20.10;;;4.40;99.90;;;;;;5087760;28;20055;-84
2023/02/11 09:59:56;;;;;;;33.85;18.80;;;4.60;99.90;;;;;;5083062;28;20465;-83
2023/02/11 10:02:59;;;;;;;38.88;21.75;;;4.60;99.90;;;;;;5091484;28;20024;-82
2023/02/11 10:05:35;;;;;;;34.10;18.88;;;4.70;99.90;;;;;;5042455;28;20042;-81
2023/02/11 10:08:13;;;;;;;37.15;19.55;;;4.80;99.90;;;;;;5082207;28;20028;-86
2023/02/11 10:10:58;;;;;;;32.17;17.58;;;4.90;99.90;;;;;;5091695;28;20085;-79
2023/02/11 10:13:32;;;;;;;33.97;17.80;;;5.10;99.90;;;;;;5081834;28;20032;-81
2023/02/11 10:16:21;;;;;;;31.85;18.35;;;5.20;99.90;;;;;;5087660;28;20016;-82
2023/02/11 10:19:07;;;;;;;37.53;18.80;;;5.40;99.90;;;;;;5092694;28;20028;-81
2023/02/11 10:22:08;;;;;;;31.55;17.67;;;5.50;99.90;;;;;;5089305;28;20171;-84
2023/02/11 10:24:35;;;;;;;32.05;16.38;;;5.60;99.90;;;;;;5088584;28;20031;-81
2023/02/11 10:27:11;;;;;;;27.98;16.30;;;5.60;99.90;;;;;;5084989;28;20085;-78
2023/02/11 10:29:55;;;;;;;31.55;16.02;;;5.70;99.90;;;;;;5101994;28;20028;-79
2023/02/11 10:32:47;;;;;;;28.27;16.77;;;5.70;99.90;;;;;;5087246;28;20027;-82
2023/02/11 10:35:17;;;;;;;28.35;15.98;;;5.90;99.90;;;;;;5092118;28;20028;-80
2023/02/11 10:37:43;;;;;;;29.13;15.95;;;5.90;99.90;;;;;;5091998;28;20066;-82
2023/02/11 10:40:29;;;;;;;31.15;16.70;;;5.90;99.90;;;;;;5083090;28;20025;-80
2023/02/11 10:42:59;;;;;;;32.00;17.02;;;6.10;99.90;;;;;;5090699;28;20032;-81
2023/02/11 10:45:48;;;;;;;27.35;15.60;;;6.20;99.90;;;;;;5086640;28;20028;-79
2023/02/11 10:48:43;;;;;;;30.77;16.98;;;6.30;99.90;;;;;;5087822;28;20035;-81
2023/02/11 10:51:12;;;;;;;28.20;16.55;;;6.20;99.90;;;;;;5106411;27;20029;-81
2023/02/11 10:53:38;;;;;;;32.10;16.60;;;;;;;;;;5094018;28;20020;-80
2023/02/11 10:56:06;;;;;;;30.95;17.23;;;6.30;99.90;;;;;;5081426;28;20032;-81
2023/02/11 10:58:40;;;;;;;30.20;16.88;;;6.50;99.90;;;;;;5093318;28;20024;-87
2023/02/11 11:01:06;;;;;;;31.73;16.52;;;5.60;99.90;;;;;;5093890;28;20033;-81
2023/02/11 11:03:44;;;;;;;32.10;16.92;;;9.10;99.90;;;;;;5101404;28;20028;-82
2023/02/11 11:06:10;;;;;;;28.73;16.00;;;6.90;99.90;;;;;;5110706;28;20024;-81
2023/02/11 11:08:43;;;;;;;30.05;15.93;;;9.80;99.90;;;;;;5095544;28;20044;-83
2023/02/11 11:11:15;;;;;;;30.83;15.88;;;7.00;99.90;;;;;;5119097;28;20009;-83
2023/02/11 11:13:56;;;;;;;32.08;16.52;;;8.80;99.90;;;;;;5109775;28;20025;-82
2023/02/11 11:16:49;;;;;;;28.85;16.38;;;9.40;99.90;;;;;;5097232;28;20035;-83
2023/02/11 11:19:21;;;;;;;28.05;15.45;;;7.70;99.90;;;;;;5095501;28;20220;-81
2023/02/11 11:21:47;;;;;;;28.73;16.42;;;7.70;99.90;;;;;;5094741;28;20028;-86
2023/02/11 11:24:18;;;;;;;29.17;17.15;;;7.80;99.90;;;;;;5088816;28;20035;-86
2023/02/11 11:26:52;;;;;;;29.60;16.63;;;7.00;99.90;;;;;;5099272;28;20032;-82
2023/02/11 11:29:33;;;;;;;33.05;17.15;;;7.70;99.90;;;;;;5094470;28;20020;-85
2023/02/11 11:32:00;;;;;;;;;;;7.90;99.90;;;;;;5092851;28;20032;-83
2023/02/11 11:34:31;;;;;;;28.83;15.10;;;7.70;99.90;;;;;;5094228;28;19954;-83
2023/02/11 11:36:59;;;;;;;32.80;16.85;;;7.90;99.90;;;;;;5093031;28;20116;-84
2023/02/11 11:39:34;;;;;;;27.98;14.95;;;8.30;99.90;;;;;;5097999;28;20040;-82
2023/02/11 11:42:04;;;;;;;28.58;14.95;;;9.10;99.90;;;;;;5096238;28;20162;-80
2023/02/11 11:44:34;;;;;;;31.30;16.65;;;7.70;99.90;;;;;;5099710;28;20023;-84
2023/02/11 11:47:12;;;;;;;31.90;17.02;;;7.70;99.90;;;;;;5098707;28;20097;-80
2023/02/11 11:49:48;;;;;;;29.88;16.80;;;7.60;99.90;;;;;;5096708;28;20024;-81
2023/02/11 11:52:47;;;;;;;28.15;16.17;;;7.50;99.90;;;;;;5091528;28;20147;-81
2023/02/11 11:55:20;;;;;;;29.08;15.45;;;7.60;99.90;;;;;;5081251;28;20047;-81
2023/02/11 11:57:47;;;;;;;29.33;15.25;;;7.80;99.90;;;;;;5096350;28;20039;-80
2023/02/11 12:00:27;;;;;;;27.40;15.38;;;8.10;99.90;;;;;;5096877;28;20048;-81
2023/02/11 12:03:18;;;;;;;29.85;15.35;;;7.70;99.90;;;;;;5091678;28;20024;-84
2023/02/11 12:06:10;;;;;;;30.88;16.60;;;7.60;99.90;;;;;;5093677;28;20044;-84
2023/02/11 12:08:51;;;;;;;30.13;15.95;;;10.50;99.90;;;;;;5096226;28;20024;-83
2023/02/11 12:11:17;;;;;;;;;;;9.40;99.90;;;;;;5096625;28;20037;-84
2023/02/11 12:14:08;;;;;;;29.35;16.02;;;8.20;99.90;;;;;;5093506;28;19908;-84
2023/02/11 12:16:45;;;;;;;29.75;15.57;;;7.80;99.90;;;;;;5104360;28;20012;-88
2023/02/11 12:19:55;;;;;;;30.95;16.40;;;7.90;99.90;;;;;;5105166;28;20040;-82
2023/02/11 12:22:42;;;;;;;27.80;14.93;;;8.30;99.90;;;;;;5065739;28;20108;-84
2023/02/11 12:25:45;;;;;;;30.75;15.52;;;8.10;99.90;;;;;;5098104;28;20038;-80
2023/02/11 12:28:39;;;;;;;28.50;15.50;;;8.40;99.90;;;;;;5098757;28;20024;-81
2023/02/11 12:31:27;;;;;;;31.58;16.40;;;9.90;99.90;;;;;;5095767;28;20032;-84
2023/02/11 12:34:20;;;;;;;25.80;14.65;;;8.10;99.90;;;;;;5095653;28;20034;-81
2023/02/11 12:37:00;;;;;;;27.55;15.05;;;8.10;99.90;;;;;;5091788;28;20103;-81
2023/02/11 12:39:49;;;;;;;27.77;15.82;;;8.10;99.90;;;;;;5095058;28;20040;-82
2023/02/11 12:45:44;;;;;;;28.48;15.35;;;8.50;99.90;;;;;;5095321;28;20432;-81
2023/02/11 12:48:38;;;;;;;27.90;16.23;;;6.70;99.90;;;;;;5056619;28;20036;-81
2023/02/11 12:51:25;;;;;;;28.13;15.10;;;8.70;99.90;;;;;;5089291;28;20127;-84
2023/02/11 12:54:09;;;;;;;23.90;14.35;;;8.90;99.90;;;;;;5094056;28;20477;-82
2023/02/11 12:56:53;;;;;;;26.60;15.27;;;8.60;99.90;;;;;;5089556;28;20020;-82
2023/02/11 12:59:54;;;;;;;25.92;14.43;;;8.60;99.90;;;;;;5133354;22;20051;-84
2023/02/11 13:02:57;;;;;;;28.98;15.70;;;8.70;99.90;;;;;;5032694;28;20334;-85
2023/02/11 13:05:38;;;;;;;22.52;14.20;;;8.80;99.90;;;;;;5057674;28;20309;-82
2023/02/11 13:08:10;;;;;;;;;;;9.00;99.90;;;;;;5041180;28;20033;-80
2023/02/11 13:10:40;;;;;;;28.92;15.02;;;9.20;99.90;;;;;;5053351;28;20413;-83
2023/02/11 13:13:55;;;;;;;28.35;15.32;;;9.30;99.90;;;;;;5034326;28;20524;-82
2023/02/11 13:16:30;;;;;;;32.28;15.32;;;9.30;99.90;;;;;;5031561;28;20016;-84
2023/02/11 13:19:30;;;;;;;32.95;17.17;;;9.20;99.90;;;;;;5035239;28;20029;-80
2023/02/11 13:22:13;;;;;;;29.17;16.35;;;9.10;99.90;;;;;;5054271;28;20036;-84
2023/02/11 13:24:46;;;;;;;31.05;16.45;;;9.00;99.90;;;;;;5036787;28;20029;-84